Time;durP1;ratioP1;P1;durP2;ratioP2;P2;SDS_P1;SDS_P2;PMS_P1;PMS_P2;Temp;Humidity;BMP_temperature;BMP_pressure;BME280_temperature;BME280_humidity;BME280_pressure;Samples;Min_cycle;Max_cycle;Signal;HPM_P1;HPM_P2
2023/05/31 00:01:27;;;;;;;9.48;7.20;;;;;;;;;;5053717;28;20416;-53
2023/05/31 00:03:53;;;;;;;9.05;6.90;;;;;;;;;;5053392;28;20410;-54
2023/05/31 00:06:19;;;;;;;8.15;6.95;;;;;;;;;;5053571;28;20868;-54
2023/05/31 00:08:45;;;;;;;7.72;6.93;;;;;;;;;;5053133;28;20455;-54
2023/05/31 00:11:11;;;;;;;8.70;7.30;;;;;;;;;;5053398;28;20405;-54
2023/05/31 00:13:38;;;;;;;7.47;6.68;;;;;;;;;;5053453;28;20759;-54
2023/05/31 00:16:06;;;;;;;8.55;7.45;;;;;;;;;;5053251;28;20412;-53
2023/05/31 00:18:32;;;;;;;8.63;6.90;;;;;;;;;;5053280;28;20409;-54
2023/05/31 00:20:58;;;;;;;8.00;7.05;;;;;;;;;;5052800;28;20404;-54
2023/05/31 00:23:24;;;;;;;8.48;7.55;;;;;;;;;;5054556;28;20509;-54
2023/05/31 00:25:50;;;;;;;9.15;7.28;;;;;;;;;;5069707;28;20840;-54
2023/05/31 00:28:16;;;;;;;8.40;7.15;;;;;;;;;;5073073;28;20443;-54
2023/05/31 00:30:42;;;;;;;8.23;7.43;;;;;;;;;;5073221;28;20487;-54
2023/05/31 00:33:09;;;;;;;8.13;7.32;;;;;;;;;;5073264;28;20483;-54
2023/05/31 00:35:35;;;;;;;7.88;7.00;;;;;;;;;;5073332;28;20491;-53
2023/05/31 00:38:02;;;;;;;8.40;7.40;;;;;;;;;;5073047;28;20450;-54
2023/05/31 00:40:28;;;;;;;8.10;7.28;;;;;;;;;;5073108;28;20465;-54
2023/05/31 00:42:54;;;;;;;9.73;7.95;;;;;;;;;;5072811;28;20415;-56
2023/05/31 00:45:20;;;;;;;7.72;6.93;;;;;;;;;;5073126;28;20415;-54
2023/05/31 00:47:46;;;;;;;8.48;7.40;;;;;;;;;;5072950;28;20422;-54
2023/05/31 00:50:14;;;;;;;10.02;9.00;;;;;;;;;;5071389;28;21149;-52
2023/05/31 00:52:41;;;;;;;9.50;8.52;;;;;;;;;;5072839;28;20400;-53
2023/05/31 00:55:08;;;;;;;8.65;7.72;;;;;;;;;;5072801;28;20408;-54
2023/05/31 00:57:34;;;;;;;8.77;7.70;;;;;;;;;;5072883;28;20403;-54
2023/05/31 01:00:00;;;;;;;8.90;7.77;;;;;;;;;;5072441;28;20475;-54
2023/05/31 01:02:26;;;;;;;8.93;7.80;;;;;;;;;;5072313;28;20908;-54
2023/05/31 01:04:52;;;;;;;8.13;7.28;;;;;;;;;;5072318;28;20399;-54
2023/05/31 01:07:21;;;;;;;9.85;8.32;;;;;;;;;;5072421;28;20803;-53
2023/05/31 01:09:47;;;;;;;8.65;7.75;;;;;;;;;;5072209;28;20886;-54
2023/05/31 01:12:16;;;;;;;8.38;7.38;;;;;;;;;;5072162;28;20410;-54
2023/05/31 01:14:46;;;;;;;8.65;7.75;;;;;;;;;;5072146;28;20399;-54
2023/05/31 01:17:15;;;;;;;10.13;8.23;;;;;;;;;;5071950;28;20870;-54
2023/05/31 01:19:48;;;;;;;9.02;7.70;;;;;;;;;;5072060;28;20461;-54
2023/05/31 01:22:20;;;;;;;10.07;8.20;;;;;;;;;;5072050;28;20388;-54
2023/05/31 01:24:53;;;;;;;10.57;8.20;;;;;;;;;;5071851;28;20435;-54
2023/05/31 01:27:21;;;;;;;9.40;8.30;;;;;;;;;;5071951;28;20403;-54
2023/05/31 01:29:48;;;;;;;9.52;8.13;;;;;;;;;;5071982;28;20438;-54
2023/05/31 01:32:15;;;;;;;9.43;8.07;;;;;;;;;;5071777;28;20606;-54
2023/05/31 01:34:43;;;;;;;8.73;7.82;;;;;;;;;;5071810;28;20431;-54
2023/05/31 01:37:09;;;;;;;9.75;8.10;;;;;;;;;;5071586;28;20403;-54
2023/05/31 01:39:35;;;;;;;10.38;8.45;;;;;;;;;;5071797;28;20391;-54
2023/05/31 01:42:02;;;;;;;9.88;8.35;;;;;;;;;;5071478;28;20909;-54
2023/05/31 01:44:30;;;;;;;8.85;7.93;;;;;;;;;;5071830;28;20821;-53
2023/05/31 01:46:56;;;;;;;10.07;8.35;;;;;;;;;;5071410;28;20404;-53
2023/05/31 01:49:23;;;;;;;8.48;7.50;;;;;;;;;;5071649;28;20421;-53
2023/05/31 01:51:50;;;;;;;9.57;7.65;;;;;;;;;;5071504;28;20432;-53
2023/05/31 01:54:16;;;;;;;8.63;7.82;;;;;;;;;;5071232;28;20392;-53
2023/05/31 01:56:43;;;;;;;8.75;7.82;;;;;;;;;;5071291;28;20419;-53
2023/05/31 01:59:09;;;;;;;8.48;7.07;;;;;;;;;;5071178;28;20406;-53
2023/05/31 02:01:37;;;;;;;10.43;7.85;;;;;;;;;;5071056;28;20434;-53
2023/05/31 02:04:03;;;;;;;8.80;7.30;;;;;;;;;;5071105;28;20407;-53
2023/05/31 02:06:29;;;;;;;8.82;7.93;;;;;;;;;;5071230;28;20403;-53
2023/05/31 02:08:55;;;;;;;8.93;8.02;;;;;;;;;;5071045;28;20406;-53
2023/05/31 02:11:21;;;;;;;8.25;7.30;;;;;;;;;;5071198;28;20403;-53
2023/05/31 02:13:48;;;;;;;8.40;7.57;;;;;;;;;;5071024;28;20403;-53
2023/05/31 02:16:14;;;;;;;9.15;8.15;;;;;;;;;;5070864;28;20407;-53
2023/05/31 02:18:42;;;;;;;9.57;8.25;;;;;;;;;;5070961;28;20399;-53
2023/05/31 02:21:08;;;;;;;8.95;8.05;;;;;;;;;;5070893;28;20438;-53
2023/05/31 02:23:34;;;;;;;8.77;7.88;;;;;;;;;;5070775;28;20834;-53
2023/05/31 02:26:00;;;;;;;9.25;8.07;;;;;;;;;;5070792;28;20419;-53
2023/05/31 02:28:26;;;;;;;9.90;8.57;;;;;;;;;;5070792;28;20411;-53
2023/05/31 02:30:53;;;;;;;9.00;8.10;;;;;;;;;;5070785;28;20395;-53
2023/05/31 02:33:20;;;;;;;9.00;7.90;;;;;;;;;;5070665;28;20477;-54
2023/05/31 02:35:47;;;;;;;10.27;8.57;;;;;;;;;;5070728;28;20407;-53
2023/05/31 02:38:13;;;;;;;9.10;8.10;;;;;;;;;;5070565;28;20411;-53
2023/05/31 02:40:39;;;;;;;8.75;7.85;;;;;;;;;;5070694;28;20403;-54
2023/05/31 02:43:05;;;;;;;9.55;8.52;;;;;;;;;;5070536;28;20412;-54
2023/05/31 02:45:31;;;;;;;9.30;8.40;;;;;;;;;;5070725;28;21027;-54
2023/05/31 02:47:57;;;;;;;8.68;7.78;;;;;;;;;;5070487;28;20466;-54
2023/05/31 02:50:23;;;;;;;9.48;8.30;;;;;;;;;;5070642;28;20445;-54
2023/05/31 02:52:50;;;;;;;9.00;8.10;;;;;;;;;;5070661;28;20396;-54
2023/05/31 02:55:16;;;;;;;9.43;8.40;;;;;;;;;;5070430;28;20400;-54
2023/05/31 02:57:43;;;;;;;9.00;7.72;;;;;;;;;;5070383;28;20905;-54
2023/05/31 03:00:10;;;;;;;9.43;8.30;;;;;;;;;;5070353;28;20403;-54
2023/05/31 03:02:37;;;;;;;10.85;8.98;;;;;;;;;;5070397;28;20742;-54
2023/05/31 03:05:04;;;;;;;9.98;8.73;;;;;;;;;;5070220;28;20893;-54
2023/05/31 03:07:30;;;;;;;9.85;8.80;;;;;;;;;;5070323;28;20399;-54
2023/05/31 03:09:57;;;;;;;9.55;8.55;;;;;;;;;;5069942;28;20876;-54
2023/05/31 03:12:23;;;;;;;9.07;8.17;;;;;;;;;;5069163;28;20415;-54
2023/05/31 03:14:49;;;;;;;9.98;8.52;;;;;;;;;;5074036;28;20478;-54
2023/05/31 03:17:15;;;;;;;10.30;8.20;;;;;;;;;;5074306;28;20882;-54
2023/05/31 03:19:41;;;;;;;9.95;8.80;;;;;;;;;;5074402;28;20411;-54
2023/05/31 03:22:07;;;;;;;10.07;8.73;;;;;;;;;;5074015;28;20481;-55
2023/05/31 03:24:33;;;;;;;10.05;9.00;;;;;;;;;;5074137;28;20825;-54
2023/05/31 03:27:00;;;;;;;10.40;9.15;;;;;;;;;;5074075;28;20463;-54
2023/05/31 03:29:27;;;;;;;9.38;8.30;;;;;;;;;;5073880;28;20483;-55
2023/05/31 03:31:53;;;;;;;10.13;9.03;;;;;;;;;;5074069;28;21044;-54
2023/05/31 03:34:21;;;;;;;9.77;8.70;;;;;;;;;;5074288;28;20408;-54
2023/05/31 03:36:47;;;;;;;9.65;8.55;;;;;;;;;;5074015;28;20936;-54
2023/05/31 03:39:13;;;;;;;10.13;8.80;;;;;;;;;;5073835;28;20475;-54
2023/05/31 03:41:39;;;;;;;10.23;9.23;;;;;;;;;;5073946;28;20400;-54
2023/05/31 03:44:06;;;;;;;10.10;8.80;;;;;;;;;;5074124;28;20447;-53
2023/05/31 03:46:32;;;;;;;9.23;8.30;;;;;;;;;;5073808;28;20496;-53
2023/05/31 03:48:58;;;;;;;9.50;8.60;;;;;;;;;;5073786;28;20396;-53
2023/05/31 03:51:24;;;;;;;10.35;9.20;;;;;;;;;;5073648;28;20400;-53
2023/05/31 03:53:50;;;;;;;9.32;8.32;;;;;;;;;;5073764;28;20398;-53
2023/05/31 03:56:16;;;;;;;10.30;9.10;;;;;;;;;;5073472;28;20403;-53
2023/05/31 03:58:42;;;;;;;10.93;9.10;;;;;;;;;;5073642;28;20773;-53
2023/05/31 04:01:10;;;;;;;9.30;8.40;;;;;;;;;;5073447;28;20482;-53
2023/05/31 04:03:36;;;;;;;9.32;8.43;;;;;;;;;;5073528;28;20419;-53
2023/05/31 04:06:02;;;;;;;9.57;8.67;;;;;;;;;;5073349;28;20446;-53
2023/05/31 04:08:28;;;;;;;9.35;8.45;;;;;;;;;;5073452;28;20431;-53
2023/05/31 04:10:54;;;;;;;9.13;8.30;;;;;;;;;;5073256;28;20877;-53
2023/05/31 04:13:20;;;;;;;10.15;8.90;;;;;;;;;;5073476;28;20400;-53
2023/05/31 04:15:46;;;;;;;10.00;8.30;;;;;;;;;;5073309;28;20439;-53
2023/05/31 04:18:14;;;;;;;9.98;8.65;;;;;;;;;;5073175;28;20427;-54
2023/05/31 04:20:40;;;;;;;9.10;8.30;;;;;;;;;;5073218;28;20396;-54
2023/05/31 04:23:06;;;;;;;10.27;8.93;;;;;;;;;;5072908;28;20412;-53
2023/05/31 04:25:32;;;;;;;9.63;8.63;;;;;;;;;;5072982;28;20486;-53
2023/05/31 04:27:58;;;;;;;8.95;8.07;;;;;;;;;;5073256;28;20882;-53
2023/05/31 04:30:26;;;;;;;9.75;8.75;;;;;;;;;;5072839;28;20400;-53
2023/05/31 04:32:52;;;;;;;9.70;8.73;;;;;;;;;;5073032;28;20391;-54
2023/05/31 04:35:19;;;;;;;10.37;9.00;;;;;;;;;;5073047;28;20765;-55
2023/05/31 04:37:48;;;;;;;9.53;8.53;;;;;;;;;;5072847;28;20415;-54
2023/05/31 04:40:14;;;;;;;9.70;8.80;;;;;;;;;;5072608;28;21025;-53
2023/05/31 04:42:40;;;;;;;9.70;8.20;;;;;;;;;;5072602;28;20931;-53
2023/05/31 04:45:07;;;;;;;9.90;8.70;;;;;;;;;;5072617;28;20533;-53
2023/05/31 04:47:33;;;;;;;10.23;9.15;;;;;;;;;;5072900;28;20443;-54
2023/05/31 04:50:00;;;;;;;10.23;9.13;;;;;;;;;;5072533;28;20548;-54
2023/05/31 04:52:31;;;;;;;9.98;8.90;;;;;;;;;;5072606;28;20403;-53
2023/05/31 04:54:58;;;;;;;9.48;8.48;;;;;;;;;;5072453;28;20400;-53
2023/05/31 04:57:26;;;;;;;8.95;8.05;;;;;;;;;;5072354;28;20469;-54
2023/05/31 04:59:52;;;;;;;9.45;8.45;;;;;;;;;;5072506;28;20411;-53
2023/05/31 05:02:18;;;;;;;8.90;8.00;;;;;;;;;;5072394;28;20404;-53
2023/05/31 05:04:45;;;;;;;9.68;8.60;;;;;;;;;;5072194;28;20461;-54
2023/05/31 05:07:11;;;;;;;8.80;7.90;;;;;;;;;;5072201;28;20762;-54
2023/05/31 05:09:38;;;;;;;8.60;7.70;;;;;;;;;;5072513;28;20399;-54
2023/05/31 05:12:16;;;;;;;8.98;7.80;;;;;;;;;;5072366;28;20443;-55
2023/05/31 05:14:42;;;;;;;8.30;7.37;;;;;;;;;;5072283;28;20426;-54
2023/05/31 05:17:07;;;;;;;8.48;7.57;;;;;;;;;;5071773;28;20453;-54
2023/05/31 05:19:34;;;;;;;7.50;6.70;;;;;;;;;;5072272;28;20411;-55
2023/05/31 05:22:00;;;;;;;8.23;7.22;;;;;;;;;;5071689;28;20754;-55
2023/05/31 05:24:26;;;;;;;9.50;7.28;;;;;;;;;;5071604;28;20419;-55
2023/05/31 05:26:53;;;;;;;7.88;7.07;;;;;;;;;;5071903;28;20424;-55
2023/05/31 05:29:19;;;;;;;7.05;6.35;;;;;;;;;;5072003;28;20407;-55
2023/05/31 05:31:47;;;;;;;8.00;7.18;;;;;;;;;;5071602;28;20481;-55
2023/05/31 05:34:13;;;;;;;7.85;7.05;;;;;;;;;;5071484;28;20436;-55
2023/05/31 05:36:39;;;;;;;7.00;6.30;;;;;;;;;;5070904;28;20408;-55
2023/05/31 05:39:06;;;;;;;7.25;6.55;;;;;;;;;;5071653;28;20491;-55
2023/05/31 05:41:32;;;;;;;7.10;6.20;;;;;;;;;;5071588;28;20414;-55
2023/05/31 05:43:59;;;;;;;7.70;6.90;;;;;;;;;;5071491;28;20408;-55
2023/05/31 05:46:25;;;;;;;7.17;6.23;;;;;;;;;;5071361;28;20428;-55
2023/05/31 05:48:51;;;;;;;8.93;6.78;;;;;;;;;;5071589;28;20905;-55
2023/05/31 05:51:17;;;;;;;7.67;6.17;;;;;;;;;;5071332;28;20418;-55
2023/05/31 05:53:43;;;;;;;7.65;6.75;;;;;;;;;;5071121;28;20407;-55
2023/05/31 05:56:11;;;;;;;6.53;5.90;;;;;;;;;;5071116;28;20461;-55
2023/05/31 05:58:37;;;;;;;8.27;6.40;;;;;;;;;;5071400;28;20436;-55
2023/05/31 06:01:04;;;;;;;6.65;5.93;;;;;;;;;;5071238;28;20913;-55
2023/05/31 06:03:30;;;;;;;7.22;5.80;;;;;;;;;;5071125;28;20874;-55
2023/05/31 06:05:56;;;;;;;6.75;6.05;;;;;;;;;;5071119;28;20429;-55
2023/05/31 06:08:22;;;;;;;6.95;5.80;;;;;;;;;;5071221;28;20429;-55
2023/05/31 06:10:48;;;;;;;8.88;6.25;;;;;;;;;;5071368;28;20391;-55
2023/05/31 06:13:15;;;;;;;6.13;5.47;;;;;;;;;;5070731;28;20912;-56
2023/05/31 06:15:44;;;;;;;6.43;5.30;;;;;;;;;;5071092;28;20395;-55
2023/05/31 06:18:11;;;;;;;6.60;5.00;;;;;;;;;;5071080;28;20396;-55
2023/05/31 06:20:37;;;;;;;7.07;5.40;;;;;;;;;;5071064;28;20809;-55
2023/05/31 06:23:03;;;;;;;5.70;5.00;;;;;;;;;;5068881;28;20531;-55
2023/05/31 06:25:29;;;;;;;5.57;4.83;;;;;;;;;;5071977;28;20284;-55
2023/05/31 06:27:57;;;;;;;5.80;4.77;;;;;;;;;;5072119;28;20206;-56
2023/05/31 06:30:23;;;;;;;5.03;4.43;;;;;;;;;;5071994;28;20203;-56
2023/05/31 06:32:49;;;;;;;7.70;4.73;;;;;;;;;;5072131;28;20261;-56
2023/05/31 06:35:16;;;;;;;8.67;4.80;;;;;;;;;;5071883;28;20196;-56
2023/05/31 06:37:42;;;;;;;8.07;5.00;;;;;;;;;;5071984;28;20200;-59
2023/05/31 06:40:09;;;;;;;5.40;3.97;;;;;;;;;;5071840;28;20200;-57
2023/05/31 06:42:35;;;;;;;6.00;4.80;;;;;;;;;;5072023;28;20196;-58
2023/05/31 06:45:01;;;;;;;5.57;5.03;;;;;;;;;;5071612;28;20745;-55
2023/05/31 06:47:27;;;;;;;4.93;4.43;;;;;;;;;;5071722;28;20417;-55
2023/05/31 06:49:53;;;;;;;5.53;4.40;;;;;;;;;;5071938;28;20246;-55
2023/05/31 06:52:20;;;;;;;7.47;5.37;;;;;;;;;;5071803;28;20228;-55
2023/05/31 06:54:46;;;;;;;6.07;4.40;;;;;;;;;;5071985;28;20198;-55
2023/05/31 06:57:12;;;;;;;6.60;3.90;;;;;;;;;;5071811;28;20574;-56
2023/05/31 06:59:38;;;;;;;5.80;4.53;;;;;;;;;;5071941;28;20204;-55
2023/05/31 07:02:05;;;;;;;7.73;4.57;;;;;;;;;;5071860;28;20207;-55
2023/05/31 07:04:31;;;;;;;6.30;4.83;;;;;;;;;;5071633;28;20310;-55
2023/05/31 07:06:57;;;;;;;5.43;3.80;;;;;;;;;;5069897;28;20315;-55
2023/05/31 07:09:24;;;;;;;7.03;4.20;;;;;;;;;;5071766;28;20203;-55
2023/05/31 07:11:50;;;;;;;4.87;4.13;;;;;;;;;;5069136;28;20206;-55
2023/05/31 07:14:16;;;;;;;5.47;4.30;;;;;;;;;;5071168;28;20287;-54
2023/05/31 07:16:42;;;;;;;4.47;3.40;;;;;;;;;;5070665;28;20290;-55
2023/05/31 07:19:08;;;;;;;7.80;3.93;;;;;;;;;;5070796;28;20274;-54
2023/05/31 07:21:34;;;;;;;5.70;4.10;;;;;;;;;;5071334;28;20199;-55
2023/05/31 07:24:00;;;;;;;3.87;3.47;;;;;;;;;;5070903;28;20223;-54
2023/05/31 07:26:28;;;;;;;6.70;3.90;;;;;;;;;;5071167;28;20195;-55
2023/05/31 07:28:54;;;;;;;5.07;3.80;;;;;;;;;;5071205;28;20203;-55
2023/05/31 07:31:20;;;;;;;3.90;3.50;;;;;;;;;;5071120;28;20234;-55
2023/05/31 07:33:46;;;;;;;4.23;3.53;;;;;;;;;;5071076;28;20309;-55
2023/05/31 07:36:13;;;;;;;3.93;3.43;;;;;;;;;;5070889;28;20205;-55
2023/05/31 07:38:39;;;;;;;4.60;3.70;;;;;;;;;;5071117;28;20195;-55
2023/05/31 07:41:05;;;;;;;4.93;3.90;;;;;;;;;;5071063;28;20203;-55
2023/05/31 07:43:34;;;;;;;6.60;3.87;;;;;;;;;;5071413;28;20314;-55
2023/05/31 07:46:00;;;;;;;5.30;3.57;;;;;;;;;;5071030;28;20284;-54
2023/05/31 07:48:28;;;;;;;6.03;3.87;;;;;;;;;;5071371;28;20197;-54
2023/05/31 07:50:54;;;;;;;3.70;3.40;;;;;;;;;;5071279;28;20199;-54
2023/05/31 07:53:20;;;;;;;4.93;4.10;;;;;;;;;;5071193;28;20188;-54
2023/05/31 07:55:47;;;;;;;7.60;4.30;;;;;;;;;;5071231;28;20248;-54
2023/05/31 07:58:13;;;;;;;8.23;4.77;;;;;;;;;;5071324;28;20208;-54
2023/05/31 08:00:41;;;;;;;7.53;3.50;;;;;;;;;;5074404;28;20283;-54
2023/05/31 08:03:07;;;;;;;6.60;3.97;;;;;;;;;;5075022;28;20742;-55
2023/05/31 08:05:33;;;;;;;4.87;4.00;;;;;;;;;;5075071;28;20697;-55
2023/05/31 08:07:59;;;;;;;5.97;4.03;;;;;;;;;;5074852;28;20567;-54
2023/05/31 08:10:25;;;;;;;4.10;3.10;;;;;;;;;;5074504;28;20571;-54
2023/05/31 08:12:51;;;;;;;5.93;4.27;;;;;;;;;;5074635;28;20231;-55
2023/05/31 08:15:17;;;;;;;6.67;4.30;;;;;;;;;;5074562;28;20282;-55
2023/05/31 08:17:46;;;;;;;6.03;4.83;;;;;;;;;;5074641;28;20710;-55
2023/05/31 08:20:15;;;;;;;5.77;4.13;;;;;;;;;;5074568;28;20329;-55
2023/05/31 08:22:42;;;;;;;9.77;4.73;;;;;;;;;;5074724;28;20281;-54
2023/05/31 08:25:08;;;;;;;8.50;5.43;;;;;;;;;;5074069;28;20231;-55
2023/05/31 08:27:34;;;;;;;8.80;5.00;;;;;;;;;;5074374;28;20727;-55
2023/05/31 08:30:00;;;;;;;8.93;4.70;;;;;;;;;;5074510;28;20200;-54
2023/05/31 08:32:26;;;;;;;7.83;4.57;;;;;;;;;;5074252;28;20210;-55
2023/05/31 08:35:00;;;;;;;4.63;3.70;;;;;;;;;;5074512;28;20208;-54
2023/05/31 08:37:26;;;;;;;5.10;3.73;;;;;;;;;;5074268;28;20201;-55
2023/05/31 08:39:52;;;;;;;7.60;3.93;;;;;;;;;;5074352;28;20225;-55
2023/05/31 08:42:22;;;;;;;5.07;3.20;;;;;;;;;;5074229;28;20251;-55
2023/05/31 08:44:48;;;;;;;6.47;3.50;;;;;;;;;;5074642;28;20228;-54
2023/05/31 08:47:18;;;;;;;4.90;3.10;;;;;;;;;;5074134;28;20202;-54
2023/05/31 08:49:45;;;;;;;3.27;2.27;;;;;;;;;;5074306;28;20203;-54
2023/05/31 08:52:13;;;;;;;5.40;2.80;;;;;;;;;;5073944;28;20201;-54
2023/05/31 08:54:39;;;;;;;3.87;2.60;;;;;;;;;;5074050;28;20276;-54
2023/05/31 08:57:06;;;;;;;4.93;2.80;;;;;;;;;;5073956;28;20568;-54
2023/05/31 08:59:34;;;;;;;4.03;3.10;;;;;;;;;;5073927;28;20571;-54
2023/05/31 09:02:00;;;;;;;3.93;3.00;;;;;;;;;;5073927;28;20199;-54
2023/05/31 09:04:27;;;;;;;6.07;2.80;;;;;;;;;;5073538;28;20273;-54
2023/05/31 09:06:53;;;;;;;6.97;3.50;;;;;;;;;;5073862;28;20294;-54
2023/05/31 09:09:20;;;;;;;5.90;3.00;;;;;;;;;;5073901;28;20203;-54
2023/05/31 09:11:46;;;;;;;5.47;3.10;;;;;;;;;;5072650;28;20206;-54
2023/05/31 09:14:12;;;;;;;5.57;3.23;;;;;;;;;;5073669;28;20195;-53
2023/05/31 09:16:38;;;;;;;4.97;3.30;;;;;;;;;;5073726;28;20191;-52
2023/05/31 09:19:05;;;;;;;4.13;2.40;;;;;;;;;;5073527;28;20561;-51
2023/05/31 09:21:38;;;;;;;4.83;2.17;;;;;;;;;;5073496;28;20196;-51
2023/05/31 09:24:04;;;;;;;4.37;2.60;;;;;;;;;;5073206;28;20266;-51
2023/05/31 09:26:32;;;;;;;3.27;2.00;;;;;;;;;;5073534;28;20199;-51
2023/05/31 09:28:59;;;;;;;5.43;2.90;;;;;;;;;;5073297;28;20278;-51
2023/05/31 09:31:25;;;;;;;5.13;2.77;;;;;;;;;;5073263;28;20225;-51
2023/05/31 09:33:54;;;;;;;4.33;2.47;;;;;;;;;;5073243;28;20201;-54
2023/05/31 09:36:25;;;;;;;5.07;2.63;;;;;;;;;;5073182;28;20204;-53
2023/05/31 09:38:51;;;;;;;4.70;2.20;;;;;;;;;;5073364;28;20256;-54
2023/05/31 09:41:18;;;;;;;5.03;2.20;;;;;;;;;;5072998;28;20197;-54
2023/05/31 09:43:47;;;;;;;4.93;2.27;;;;;;;;;;5073043;28;20233;-55
2023/05/31 09:46:13;;;;;;;4.77;2.47;;;;;;;;;;5072927;28;20231;-56
2023/05/31 09:48:39;;;;;;;4.53;2.70;;;;;;;;;;5073046;28;20206;-55
2023/05/31 09:51:06;;;;;;;6.70;3.03;;;;;;;;;;5073027;28;20228;-55
2023/05/31 09:53:36;;;;;;;5.13;2.80;;;;;;;;;;5072986;28;20341;-55
2023/05/31 09:56:03;;;;;;;5.30;2.50;;;;;;;;;;5072801;28;20207;-56
2023/05/31 09:58:32;;;;;;;4.43;2.30;;;;;;;;;;5072631;28;20226;-55
2023/05/31 10:01:00;;;;;;;5.00;2.20;;;;;;;;;;5072685;28;20209;-56
2023/05/31 10:03:26;;;;;;;4.93;2.40;;;;;;;;;;5072424;28;20317;-56
2023/05/31 10:05:52;;;;;;;4.40;2.40;;;;;;;;;;5072533;28;20227;-55
2023/05/31 10:08:18;;;;;;;4.97;2.70;;;;;;;;;;5072329;28;20210;-55
2023/05/31 10:10:44;;;;;;;5.37;2.80;;;;;;;;;;5072384;28;20225;-56
2023/05/31 10:13:11;;;;;;;7.63;3.00;;;;;;;;;;5072028;28;20232;-55
2023/05/31 10:15:37;;;;;;;4.77;2.43;;;;;;;;;;5072156;28;20202;-56
2023/05/31 10:18:10;;;;;;;5.17;2.30;;;;;;;;;;5072082;28;20333;-55
2023/05/31 10:20:38;;;;;;;4.33;2.20;;;;;;;;;;5072121;28;20709;-55
2023/05/31 10:23:06;;;;;;;5.70;2.30;;;;;;;;;;5071660;28;20213;-55
2023/05/31 10:25:37;;;;;;;5.50;2.10;;;;;;;;;;5072033;28;20565;-55
2023/05/31 10:28:08;;;;;;;4.40;2.10;;;;;;;;;;5072142;28;20221;-55
2023/05/31 10:30:35;;;;;;;5.33;2.50;;;;;;;;;;5072269;28;20252;-55
2023/05/31 10:33:04;;;;;;;6.13;2.03;;;;;;;;;;5071985;28;20199;-55
2023/05/31 10:35:31;;;;;;;3.50;2.40;;;;;;;;;;5071877;28;20210;-55
2023/05/31 10:37:57;;;;;;;4.57;2.20;;;;;;;;;;5072101;28;20695;-55
2023/05/31 10:40:26;;;;;;;6.10;2.23;;;;;;;;;;5071743;28;20206;-55
2023/05/31 10:42:59;;;;;;;3.77;1.90;;;;;;;;;;5072005;28;20206;-55
2023/05/31 10:45:26;;;;;;;4.27;2.13;;;;;;;;;;5071811;28;20252;-55
2023/05/31 10:47:56;;;;;;;7.17;2.60;;;;;;;;;;5071773;28;20891;-55
2023/05/31 10:50:22;;;;;;;4.83;2.00;;;;;;;;;;5071690;28;20220;-55
2023/05/31 10:52:50;;;;;;;4.93;2.10;;;;;;;;;;5071815;28;20676;-55
2023/05/31 10:55:17;;;;;;;4.07;2.30;;;;;;;;;;5071528;28;20302;-55
2023/05/31 10:57:43;;;;;;;4.93;2.60;;;;;;;;;;5071682;28;20206;-55
2023/05/31 11:00:11;;;;;;;4.43;2.30;;;;;;;;;;5071576;28;20209;-55
2023/05/31 11:02:38;;;;;;;3.30;1.90;;;;;;;;;;5071947;28;20270;-55
2023/05/31 11:05:20;;;;;;;2.97;2.03;;;;;;;;;;5071775;28;20233;-55
2023/05/31 11:07:47;;;;;;;4.13;2.53;;;;;;;;;;5071796;28;20223;-55
2023/05/31 11:10:24;;;;;;;3.47;2.00;;;;;;;;;;5071599;28;20234;-54
2023/05/31 11:12:50;;;;;;;3.33;2.00;;;;;;;;;;5071923;28;20196;-55
2023/05/31 11:15:16;;;;;;;4.17;2.13;;;;;;;;;;5071630;28;20219;-55
2023/05/31 11:17:51;;;;;;;4.03;2.17;;;;;;;;;;5071799;28;20230;-54
2023/05/31 11:20:17;;;;;;;4.60;2.10;;;;;;;;;;5071523;28;20634;-55
2023/05/31 11:22:43;;;;;;;2.63;1.80;;;;;;;;;;5071626;28;20207;-54
2023/05/31 11:25:20;;;;;;;4.83;2.00;;;;;;;;;;5071091;28;20246;-54
2023/05/31 11:27:48;;;;;;;3.97;2.20;;;;;;;;;;5071147;28;20673;-55
2023/05/31 11:30:15;;;;;;;5.27;2.13;;;;;;;;;;5071290;28;20269;-54
2023/05/31 11:32:55;;;;;;;5.37;2.10;;;;;;;;;;5071484;28;20672;-55
2023/05/31 11:35:21;;;;;;;4.23;1.83;;;;;;;;;;5074167;28;20191;-54
2023/05/31 11:37:48;;;;;;;4.37;2.10;;;;;;;;;;5075558;28;20574;-55
2023/05/31 11:40:15;;;;;;;3.07;2.17;;;;;;;;;;5075260;28;20227;-55
2023/05/31 11:42:42;;;;;;;5.53;2.23;;;;;;;;;;5075425;28;20647;-55
2023/05/31 11:45:10;;;;;;;3.60;2.00;;;;;;;;;;5075326;28;20296;-53
2023/05/31 11:47:40;;;;;;;5.20;2.20;;;;;;;;;;5075348;28;20569;-54
2023/05/31 11:50:07;;;;;;;2.20;1.73;;;;;;;;;;5075394;28;20557;-54
2023/05/31 11:52:33;;;;;;;6.73;2.03;;;;;;;;;;5074901;28;20217;-53
2023/05/31 11:55:05;;;;;;;3.93;2.00;;;;;;;;;;5075122;28;20195;-54
2023/05/31 11:57:32;;;;;;;2.97;1.80;;;;;;;;;;5075202;28;20201;-54
2023/05/31 12:00:07;;;;;;;3.17;1.77;;;;;;;;;;5074970;28;20250;-54
2023/05/31 12:02:34;;;;;;;3.70;1.73;;;;;;;;;;5075012;28;20201;-54
2023/05/31 12:05:01;;;;;;;3.00;1.63;;;;;;;;;;5074580;28;20249;-54
2023/05/31 12:07:27;;;;;;;3.97;2.00;;;;;;;;;;5074315;28;20209;-54
2023/05/31 12:09:53;;;;;;;7.43;2.20;;;;;;;;;;5074719;28;20576;-54
2023/05/31 12:12:19;;;;;;;3.83;2.00;;;;;;;;;;5074777;28;20198;-54
2023/05/31 12:14:54;;;;;;;6.93;2.27;;;;;;;;;;5074772;28;20194;-54
2023/05/31 12:17:21;;;;;;;4.17;2.03;;;;;;;;;;5074803;28;20189;-54
2023/05/31 12:19:49;;;;;;;2.60;2.03;;;;;;;;;;5074575;28;20195;-54
2023/05/31 12:22:15;;;;;;;4.60;2.13;;;;;;;;;;5074564;28;20194;-54
2023/05/31 12:24:48;;;;;;;3.43;1.90;;;;;;;;;;5074118;28;20243;-54
2023/05/31 12:27:15;;;;;;;4.23;2.20;;;;;;;;;;5074447;28;20225;-54
2023/05/31 12:29:41;;;;;;;2.87;1.70;;;;;;;;;;5074577;28;20199;-53
2023/05/31 12:32:08;;;;;;;2.50;1.63;;;;;;;;;;5074380;28;20605;-53
2023/05/31 12:34:35;;;;;;;1.93;1.53;;;;;;;;;;5074575;28;20280;-53
2023/05/31 12:37:05;;;;;;;2.30;1.60;;;;;;;;;;5074391;28;20275;-53
2023/05/31 12:39:31;;;;;;;3.70;1.77;;;;;;;;;;5074250;28;20260;-53
2023/05/31 12:41:58;;;;;;;2.27;1.67;;;;;;;;;;5074267;28;20254;-53
2023/05/31 12:44:26;;;;;;;5.37;1.80;;;;;;;;;;5074137;28;20232;-55
2023/05/31 12:46:52;;;;;;;3.33;1.87;;;;;;;;;;5074183;28;20201;-55
2023/05/31 12:49:21;;;;;;;2.63;1.40;;;;;;;;;;5073971;28;20280;-55
2023/05/31 12:51:47;;;;;;;1.43;1.30;;;;;;;;;;5074221;28;20193;-54
2023/05/31 12:54:17;;;;;;;2.33;1.70;;;;;;;;;;5073907;28;20255;-55
2023/05/31 12:56:43;;;;;;;3.10;1.70;;;;;;;;;;5074007;28;20224;-54
2023/05/31 12:59:10;;;;;;;3.80;1.73;;;;;;;;;;5073588;28;20617;-54
2023/05/31 13:01:38;;;;;;;4.03;2.03;;;;;;;;;;5073852;28;20203;-55
2023/05/31 13:04:04;;;;;;;3.13;1.70;;;;;;;;;;5073586;28;20232;-55
2023/05/31 13:06:30;;;;;;;4.13;2.27;;;;;;;;;;5073523;28;20220;-55
2023/05/31 13:08:56;;;;;;;3.10;1.80;;;;;;;;;;5073523;28;20660;-55
2023/05/31 13:11:25;;;;;;;2.47;1.93;;;;;;;;;;5073462;28;20670;-54
2023/05/31 13:13:51;;;;;;;3.70;1.90;;;;;;;;;;5073771;28;20282;-55
2023/05/31 13:16:17;;;;;;;2.47;1.80;;;;;;;;;;5073390;28;20295;-53
2023/05/31 13:18:43;;;;;;;2.67;1.53;;;;;;;;;;5073444;28;20198;-53
2023/05/31 13:21:09;;;;;;;2.10;1.47;;;;;;;;;;5073293;28;20204;-53
2023/05/31 13:23:35;;;;;;;2.53;1.77;;;;;;;;;;5073071;28;20780;-53
2023/05/31 13:26:01;;;;;;;3.40;1.63;;;;;;;;;;5073335;28;20205;-53
2023/05/31 13:28:29;;;;;;;2.43;1.60;;;;;;;;;;5073122;28;20201;-53
2023/05/31 13:30:55;;;;;;;2.30;1.47;;;;;;;;;;5073149;28;20284;-53
2023/05/31 13:33:21;;;;;;;4.13;1.63;;;;;;;;;;5073089;28;20655;-53
2023/05/31 13:35:47;;;;;;;2.30;1.67;;;;;;;;;;5073268;28;20227;-53
2023/05/31 13:38:13;;;;;;;2.50;1.50;;;;;;;;;;5072949;28;20207;-53
2023/05/31 13:40:39;;;;;;;3.37;1.40;;;;;;;;;;5072799;28;20196;-52
2023/05/31 13:43:05;;;;;;;3.33;1.27;;;;;;;;;;5073042;28;20198;-54
2023/05/31 13:45:33;;;;;;;3.63;1.77;;;;;;;;;;5072979;28;20636;-54
2023/05/31 13:47:59;;;;;;;2.47;1.60;;;;;;;;;;5072882;28;20206;-54
2023/05/31 13:50:25;;;;;;;5.23;1.90;;;;;;;;;;5072568;28;20205;-54
2023/05/31 13:52:51;;;;;;;3.90;1.90;;;;;;;;;;5072794;28;20206;-55
2023/05/31 13:55:17;;;;;;;2.97;1.57;;;;;;;;;;5072601;28;20193;-54
2023/05/31 13:57:43;;;;;;;3.67;1.70;;;;;;;;;;5072073;28;20220;-56
2023/05/31 14:00:10;;;;;;;4.70;1.80;;;;;;;;;;5072818;28;20532;-54
2023/05/31 14:02:41;;;;;;;4.40;1.70;;;;;;;;;;5072559;28;20294;-55
2023/05/31 14:05:07;;;;;;;2.33;1.80;;;;;;;;;;5072346;28;20239;-54
2023/05/31 14:07:33;;;;;;;4.30;2.00;;;;;;;;;;5072383;28;20592;-54
2023/05/31 14:09:59;;;;;;;3.47;1.83;;;;;;;;;;5072503;28;20210;-54
2023/05/31 14:12:25;;;;;;;2.97;1.60;;;;;;;;;;5072172;28;20204;-57
2023/05/31 14:14:51;;;;;;;2.57;1.50;;;;;;;;;;5072450;28;20692;-57
2023/05/31 14:17:17;;;;;;;3.17;1.63;;;;;;;;;;5072168;28;20203;-56
2023/05/31 14:19:44;;;;;;;4.30;1.70;;;;;;;;;;5072205;28;20219;-56
2023/05/31 14:22:10;;;;;;;3.50;1.70;;;;;;;;;;5072261;28;20210;-54
2023/05/31 14:24:36;;;;;;;3.13;1.73;;;;;;;;;;5071839;28;20292;-54
2023/05/31 14:27:02;;;;;;;1.80;1.50;;;;;;;;;;5072129;28;20205;-54
2023/05/31 14:29:28;;;;;;;3.40;1.47;;;;;;;;;;5071693;28;20227;-54
2023/05/31 14:31:54;;;;;;;1.63;1.30;;;;;;;;;;5071969;28;20234;-54
2023/05/31 14:34:20;;;;;;;2.67;1.60;;;;;;;;;;5071986;28;20633;-54
2023/05/31 14:36:47;;;;;;;3.17;1.73;;;;;;;;;;5071996;28;20195;-55
2023/05/31 14:39:13;;;;;;;2.77;1.43;;;;;;;;;;5071882;28;20210;-54
2023/05/31 14:41:40;;;;;;;3.97;1.60;;;;;;;;;;5071869;28;20192;-54